sim
Sign-in with your pilot id or email,
or register
Callsign
Passwort

Schedule Details

Flight Number: EWG2683 (3)
Departure: Thessaloniki International Airport (LGTS) at 14:25
Arrival: Stuttgart Airport (EDDS) at 16:50
Route: Eurowings Passenger Schedule. Enter filed route here before submitting Pirep.

Weather Information
Getting current METAR information for LGTS 211720Z 17006KT CAVOK 30/12 Q1016 NOSIG
Getting current METAR information for EDDS 211720Z 08006KT 9999 FEW045 20/11 Q1026 NOSIG

Schedule Frequency

Route Map